Airport Information

KRNT - Renton Airport

KRNT 191906Z 13005KT 8SM SCT027 OVC044 15/08 A3020 RMK AO2 T01500083


  • General Information

  • Coordinates: N 47°29'35"/ W 122°12'56"
  • Location: N/A
  • Surveyed Elevation: 32 MSL

Operations

Flow Name Active Runways Conditions

Green background denotes normal operations.


Common Frequencies

Callsign Frequency Position Name

More at the Document Center


Charts

Name Description Cycle
RENTN THREE Page 1 1904
BELLEVUE FOUR Page 1 1904
Name Description Cycle
CHINS THREE Page 1 | Page 2 1904
EPHRATA EIGHT Page 1 1904
GLASR ONE Page 1 | Page 2 1904
OLYMPIA TWO Page 1 | Page 2 1904